Private Wetterstation Sandau
Wetterdaten: Freitag, 27.07.2012
Datum Zeit Temp. A. Feuchte A. Luftdruck Regen Wind Richtung Richtung Taupunkt Windchill
27.07.2012 00:31 21,5 C 61 % 1017,5 hPa 0,0 l/m 2,9 km/h (1 Bft) O-NO 67 13,7 C 21,5 C
27.07.2012 00:36 21,4 C 61 % 1017,6 hPa 0,0 l/m 2,5 km/h (1 Bft) O-NO 67 13,6 C 21,4 C
27.07.2012 00:41 21,3 C 61 % 1017,7 hPa 0,0 l/m 0,0 km/h (0 Bft) O-NO 67 13,5 C 21,3 C
27.07.2012 00:46 21,3 C 61 % 1017,6 hPa 0,0 l/m 2,5 km/h (1 Bft) NO 45 13,5 C 21,3 C
27.07.2012 00:51 21,1 C 61 % 1017,6 hPa 0,0 l/m 4,0 km/h (1 Bft) O-NO 67 13,3 C 21,1 C
27.07.2012 00:56 21,1 C 61 % 1017,6 hPa 0,0 l/m 0,0 km/h (0 Bft) O-NO 67 13,3 C 21,1 C
27.07.2012 01:01 20,9 C 61 % 1017,7 hPa 0,0 l/m 0,0 km/h (0 Bft) O-NO 67 13,1 C 20,9 C
27.07.2012 01:36 20,6 C 63 % 1017,5 hPa 0,0 l/m 2,2 km/h (1 Bft) O-NO 67 13,3 C 20,6 C
27.07.2012 01:41 20,5 C 63 % 1017,4 hPa 0,0 l/m 2,9 km/h (1 Bft) O-NO 67 13,2 C 20,5 C
27.07.2012 01:46 20,4 C 63 % 1017,5 hPa 0,0 l/m 0,0 km/h (0 Bft) O-NO 67 13,1 C 20,4 C
27.07.2012 01:51 20,3 C 63 % 1017,5 hPa 0,0 l/m 0,0 km/h (0 Bft) O-NO 67 13,0 C 20,3 C
27.07.2012 01:56 20,3 C 64 % 1017,3 hPa 0,0 l/m 0,0 km/h (0 Bft) O-NO 67 13,3 C 20,3 C
27.07.2012 02:01 20,3 C 64 % 1017,3 hPa 0,0 l/m 2,2 km/h (1 Bft) O-NO 67 13,3 C 20,3 C
27.07.2012 02:06 20,1 C 64 % 1017,4 hPa 0,0 l/m 0,0 km/h (0 Bft) O-NO 67 13,1 C 20,1 C
27.07.2012 02:11 19,9 C 66 % 1017,4 hPa 0,0 l/m 0,0 km/h (0 Bft) O-NO 67 13,4 C 19,9 C
27.07.2012 02:16 19,8 C 66 % 1017,4 hPa 0,0 l/m 1,1 km/h (1 Bft) O-NO 67 13,3 C 19,8 C
27.07.2012 02:21 19,6 C 67 % 1017,4 hPa 0,0 l/m 1,4 km/h (1 Bft) O-NO 67 13,3 C 19,6 C
27.07.2012 02:26 19,4 C 67 % 1017,3 hPa 0,0 l/m 2,2 km/h (1 Bft) O-NO 67 13,1 C 19,4 C
27.07.2012 02:31 19,3 C 68 % 1017,2 hPa 0,0 l/m 2,2 km/h (1 Bft) NO 45 13,2 C 19,3 C
27.07.2012 02:36 19,2 C 68 % 1017,2 hPa 0,0 l/m 0,0 km/h (0 Bft) NO 45 13,1 C 19,2 C
27.07.2012 02:41 19,2 C 68 % 1017,2 hPa 0,0 l/m 3,6 km/h (1 Bft) O-NO 67 13,1 C 19,2 C
27.07.2012 02:46 19,2 C 68 % 1017,2 hPa 0,0 l/m 0,0 km/h (0 Bft) NO 45 13,1 C 19,2 C
27.07.2012 02:51 19,2 C 68 % 1017,2 hPa 0,0 l/m 1,8 km/h (1 Bft) NO 45 13,1 C 19,2 C
27.07.2012 02:56 19,1 C 68 % 1017,3 hPa 0,0 l/m 0,0 km/h (0 Bft) NO 45 13,1 C 19,1 C
27.07.2012 03:01 19,0 C 68 % 1017,3 hPa 0,0 l/m 0,0 km/h (0 Bft) NO 45 13,0 C 19,0 C
27.07.2012 03:06 18,9 C 68 % 1017,1 hPa 0,0 l/m 0,0 km/h (0 Bft) NO 45 12,9 C 18,9 C
27.07.2012 03:11 18,9 C 68 % 1017,1 hPa 0,0 l/m 0,0 km/h (0 Bft) NO 45 12,9 C 18,9 C
27.07.2012 03:16 18,8 C 68 % 1017,1 hPa 0,0 l/m 0,0 km/h (0 Bft) NO 45 12,8 C 18,8 C
27.07.2012 03:21 18,6 C 68 % 1017,2 hPa 0,0 l/m 0,0 km/h (0 Bft) NO 45 12,6 C 18,6 C
27.07.2012 03:26 18,6 C 69 % 1017,1 hPa 0,0 l/m 0,0 km/h (0 Bft) NO 45 12,8 C 18,6 C
27.07.2012 03:31 18,5 C 69 % 1017,1 hPa 0,0 l/m 0,0 km/h (0 Bft) NO 45 12,7 C 18,5 C
27.07.2012 03:36 18,4 C 69 % 1017,1 hPa 0,0 l/m 0,0 km/h (0 Bft) NO 45 12,6 C 18,4 C
27.07.2012 03:41 18,3 C 70 % 1017,2 hPa 0,0 l/m 0,0 km/h (0 Bft) NO 45 12,7 C 18,3 C
27.07.2012 03:46 18,2 C 70 % 1017,1 hPa 0,0 l/m 0,0 km/h (0 Bft) NO 45 12,6 C 18,2 C
27.07.2012 03:51 18,2 C 70 % 1017,0 hPa 0,0 l/m 0,0 km/h (0 Bft) NO 45 12,6 C 18,2 C
27.07.2012 03:56 18,1 C 70 % 1017,2 hPa 0,0 l/m 0,0 km/h (0 Bft) NO 45 12,5 C 18,1 C
27.07.2012 04:01 18,0 C 70 % 1017,1 hPa 0,0 l/m 0,0 km/h (0 Bft) NO 45 12,4 C 18,0 C
27.07.2012 04:06 17,9 C 71 % 1017,0 hPa 0,0 l/m 0,0 km/h (0 Bft) NO 45 12,6 C 17,9 C
27.07.2012 04:11 17,9 C 71 % 1017,2 hPa 0,0 l/m 0,0 km/h (0 Bft) NO 45 12,6 C 17,9 C
27.07.2012 04:16 17,9 C 71 % 1017,1 hPa 0,0 l/m 0,0 km/h (0 Bft) NO 45 12,6 C 17,9 C
27.07.2012 04:21 17,8 C 71 % 1017,0 hPa 0,0 l/m 0,0 km/h (0 Bft) NO 45 12,5 C 17,8 C
27.07.2012 04:26 17,8 C 72 % 1017,1 hPa 0,0 l/m 0,0 km/h (0 Bft) NO 45 12,7 C 17,8 C
27.07.2012 04:31 17,8 C 72 % 1017,1 hPa 0,0 l/m 0,0 km/h (0 Bft) NO 45 12,7 C 17,8 C
27.07.2012 04:36 17,7 C 72 % 1017,1 hPa 0,0 l/m 0,0 km/h (0 Bft) NO 45 12,6 C 17,7 C
27.07.2012 04:41 17,6 C 73 % 1017,1 hPa 0,0 l/m 0,0 km/h (0 Bft) NO 45 12,7 C 17,6 C
27.07.2012 04:46 17,6 C 73 % 1017,1 hPa 0,0 l/m 0,0 km/h (0 Bft) NO 45 12,7 C 17,6 C
27.07.2012 04:51 17,6 C 73 % 1017,2 hPa 0,0 l/m 0,0 km/h (0 Bft) NO 45 12,7 C 17,6 C
27.07.2012 04:56 17,6 C 73 % 1017,2 hPa 0,0 l/m 0,0 km/h (0 Bft) NO 45 12,7 C 17,6 C
27.07.2012 05:01 17,5 C 72 % 1017,4 hPa 0,0 l/m 0,0 km/h (0 Bft) NO 45 12,4 C 17,5 C
27.07.2012 05:06 17,3 C 73 % 1017,2 hPa 0,0 l/m 0,0 km/h (0 Bft) NO 45 12,4 C 17,3 C
27.07.2012 05:11 17,2 C 73 % 1017,1 hPa 0,0 l/m 0,0 km/h (0 Bft) NO 45 12,3 C 17,2 C
27.07.2012 05:16 17,1 C 73 % 1017,0 hPa 0,0 l/m 0,0 km/h (0 Bft) NO 45 12,2 C 17,1 C
27.07.2012 05:21 17,1 C 74 % 1016,9 hPa 0,0 l/m 0,0 km/h (0 Bft) NO 45 12,4 C 17,1 C
27.07.2012 05:26 17,0 C 74 % 1016,9 hPa 0,0 l/m 0,0 km/h (0 Bft) NO 45 12,3 C 17,0 C
27.07.2012 05:31 17,0 C 75 % 1016,9 hPa 0,0 l/m 0,0 km/h (0 Bft) NO 45 12,5 C 17,0 C
27.07.2012 05:36 16,9 C 75 % 1016,9 hPa 0,0 l/m 0,0 km/h (0 Bft) NO 45 12,4 C 16,9 C
27.07.2012 05:41 16,9 C 76 % 1016,9 hPa 0,0 l/m 0,0 km/h (0 Bft) NO 45 12,6 C 16,9 C
27.07.2012 05:46 16,9 C 76 % 1017,0 hPa 0,0 l/m 0,0 km/h (0 Bft) NO 45 12,6 C 16,9 C
27.07.2012 05:51 16,9 C 77 % 1017,0 hPa 0,0 l/m 0,0 km/h (0 Bft) NO 45 12,8 C 16,9 C
27.07.2012 05:56 16,9 C 77 % 1017,1 hPa 0,0 l/m 0,0 km/h (0 Bft) NO 45 12,8 C 16,9 C
27.07.2012 06:01 16,9 C 77 % 1017,1 hPa 0,0 l/m 0,0 km/h (0 Bft) NO 45 12,8 C 16,9 C
27.07.2012 06:06 17,2 C 78 % 1017,2 hPa 0,0 l/m 0,0 km/h (0 Bft) NO 45 13,3 C 17,2 C
27.07.2012 06:11 17,6 C 78 % 1017,2 hPa 0,0 l/m 0,0 km/h (0 Bft) NO 45 13,7 C 17,6 C
27.07.2012 06:16 17,8 C 76 % 1017,2 hPa 0,0 l/m 0,0 km/h (0 Bft) NO 45 13,5 C 17,8 C
27.07.2012 06:21 17,9 C 75 % 1017,3 hPa 0,0 l/m 0,0 km/h (0 Bft) NO 45 13,4 C 17,9 C
27.07.2012 06:26 18,3 C 75 % 1017,1 hPa 0,0 l/m 0,0 km/h (0 Bft) NO 45 13,8 C 18,3 C
27.07.2012 06:31 18,8 C 74 % 1017,2 hPa 0,0 l/m 0,0 km/h (0 Bft) NO 45 14,1 C 18,8 C
27.07.2012 06:36 19,6 C 72 % 1017,3 hPa 0,0 l/m 0,0 km/h (0 Bft) NO 45 14,4 C 19,6 C
27.07.2012 06:41 20,4 C 69 % 1017,3 hPa 0,0 l/m 0,0 km/h (0 Bft) NO 45 14,5 C 20,4 C
27.07.2012 06:46 21,1 C 66 % 1017,3 hPa 0,0 l/m 0,0 km/h (0 Bft) NO 45 14,5 C 21,1 C
27.07.2012 06:51 21,4 C 64 % 1017,4 hPa 0,0 l/m 0,0 km/h (0 Bft) O-NO 67 14,3 C 21,4 C
27.07.2012 06:56 21,6 C 63 % 1017,3 hPa 0,0 l/m 0,0 km/h (0 Bft) O-NO 67 14,2 C 21,6 C
27.07.2012 07:01 21,8 C 62 % 1017,3 hPa 0,0 l/m 2,5 km/h (1 Bft) O-NO 67 14,2 C 21,8 C
27.07.2012 07:06 21,8 C 62 % 1017,2 hPa 0,0 l/m 1,4 km/h (1 Bft) O-NO 67 14,2 C 21,8 C
27.07.2012 07:11 21,8 C 62 % 1017,1 hPa 0,0 l/m 0,0 km/h (0 Bft) O-NO 67 14,2 C 21,8 C
27.07.2012 07:16 21,6 C 62 % 1017,2 hPa 0,0 l/m 2,2 km/h (1 Bft) O-NO 67 14,0 C 21,6 C
27.07.2012 07:21 21,5 C 62 % 1017,2 hPa 0,0 l/m 2,5 km/h (1 Bft) O-NO 67 13,9 C 21,5 C
27.07.2012 07:26 21,4 C 63 % 1017,3 hPa 0,0 l/m 0,0 km/h (0 Bft) SO 135 14,1 C 21,4 C
27.07.2012 07:31 21,3 C 63 % 1017,1 hPa 0,0 l/m 4,0 km/h (1 Bft) O 90 14,0 C 21,3 C
27.07.2012 07:36 21,1 C 64 % 1017,2 hPa 0,0 l/m 1,4 km/h (1 Bft) O-SO 112 14,0 C 21,1 C
27.07.2012 07:41 21,2 C 64 % 1017,2 hPa 0,0 l/m 3,2 km/h (1 Bft) O 90 14,1 C 21,2 C
27.07.2012 07:46 21,3 C 64 % 1017,2 hPa 0,0 l/m 2,2 km/h (1 Bft) O-NO 67 14,2 C 21,3 C
27.07.2012 07:51 21,3 C 64 % 1017,3 hPa 0,0 l/m 3,2 km/h (1 Bft) O-SO 112 14,2 C 21,3 C
27.07.2012 07:56 21,3 C 64 % 1017,2 hPa 0,0 l/m 5,0 km/h (1 Bft) O-SO 112 14,2 C 21,3 C
27.07.2012 08:01 21,4 C 64 % 1017,4 hPa 0,0 l/m 2,5 km/h (1 Bft) O-NO 67 14,3 C 21,4 C
27.07.2012 08:06 21,4 C 63 % 1017,4 hPa 0,0 l/m 4,3 km/h (1 Bft) S-SO 157 14,1 C 21,4 C
27.07.2012 08:11 21,6 C 63 % 1017,3 hPa 0,0 l/m 2,5 km/h (1 Bft) SO 135 14,2 C 21,6 C
27.07.2012 08:16 21,7 C 62 % 1017,4 hPa 0,0 l/m 3,2 km/h (1 Bft) NO 45 14,1 C 21,7 C
27.07.2012 08:21 21,8 C 62 % 1017,3 hPa 0,0 l/m 4,7 km/h (1 Bft) O 90 14,2 C 21,8 C
27.07.2012 08:26 22,1 C 62 % 1017,2 hPa 0,0 l/m 4,7 km/h (1 Bft) S-SO 157 14,5 C 22,1 C
27.07.2012 08:31 22,4 C 62 % 1017,1 hPa 0,0 l/m 1,1 km/h (1 Bft) O-SO 112 14,8 C 22,4 C
27.07.2012 08:36 22,6 C 60 % 1017,3 hPa 0,0 l/m 2,5 km/h (1 Bft) O-SO 112 14,4 C 22,6 C
27.07.2012 08:41 22,7 C 60 % 1017,3 hPa 0,0 l/m 4,7 km/h (1 Bft) SO 135 14,5 C 22,7 C
27.07.2012 08:46 23,0 C 59 % 1017,3 hPa 0,0 l/m 1,4 km/h (1 Bft) O-NO 67 14,5 C 23,0 C
27.07.2012 08:51 23,2 C 58 % 1017,3 hPa 0,0 l/m 2,9 km/h (1 Bft) O-NO 67 14,5 C 23,2 C
27.07.2012 08:56 23,3 C 58 % 1017,2 hPa 0,0 l/m 1,4 km/h (1 Bft) O 90 14,6 C 23,3 C
27.07.2012 09:01 23,3 C 57 % 1017,1 hPa 0,0 l/m 4,7 km/h (1 Bft) SO 135 14,3 C 23,3 C
27.07.2012 09:06 23,5 C 57 % 1017,1 hPa 0,0 l/m 5,8 km/h (2 Bft) SO 135 14,5 C 23,5 C
27.07.2012 09:11 23,7 C 57 % 1016,9 hPa 0,0 l/m 2,2 km/h (1 Bft) SO 135 14,7 C 23,7 C
27.07.2012 09:16 23,9 C 56 % 1016,9 hPa 0,0 l/m 13,3 km/h (3 Bft) O 90 14,6 C 23,9 C
27.07.2012 09:21 24,0 C 55 % 1017,0 hPa 0,0 l/m 6,1 km/h (2 Bft) S-SO 157 14,4 C 24,0 C
27.07.2012 09:26 24,2 C 55 % 1017,0 hPa 0,0 l/m 4,7 km/h (1 Bft) O-SO 112 14,6 C 24,2 C
27.07.2012 09:31 24,4 C 56 % 1017,0 hPa 0,0 l/m 2,9 km/h (1 Bft) O-SO 112 15,0 C 24,4 C
27.07.2012 09:36 24,6 C 54 % 1016,8 hPa 0,0 l/m 6,1 km/h (2 Bft) SO 135 14,7 C 24,6 C
27.07.2012 09:41 24,7 C 54 % 1016,8 hPa 0,0 l/m 6,5 km/h (2 Bft) SO 135 14,8 C 24,7 C
27.07.2012 09:46 24,7 C 53 % 1016,9 hPa 0,0 l/m 7,6 km/h (2 Bft) SO 135 14,5 C 24,7 C
27.07.2012 09:51 24,8 C 52 % 1016,8 hPa 0,0 l/m 8,6 km/h (2 Bft) O-NO 67 14,3 C 24,8 C
27.07.2012 09:56 24,9 C 53 % 1016,8 hPa 0,0 l/m 4,3 km/h (1 Bft) O-SO 112 14,6 C 24,9 C
27.07.2012 10:01 25,3 C 52 % 1016,7 hPa 0,0 l/m 4,7 km/h (1 Bft) O-SO 112 14,7 C 25,3 C
27.07.2012 10:06 25,5 C 49 % 1016,7 hPa 0,0 l/m 6,8 km/h (2 Bft) O-SO 112 14,0 C 25,5 C
27.07.2012 10:11 25,6 C 49 % 1016,6 hPa 0,0 l/m 3,2 km/h (1 Bft) O-SO 112 14,1 C 25,6 C
27.07.2012 10:16 25,8 C 49 % 1016,7 hPa 0,0 l/m 6,5 km/h (2 Bft) O-NO 67 14,3 C 25,8 C
27.07.2012 10:21 25,9 C 49 % 1016,4 hPa 0,0 l/m 4,0 km/h (1 Bft) O-NO 67 14,4 C 25,9 C
27.07.2012 10:26 26,2 C 49 % 1016,5 hPa 0,0 l/m 4,7 km/h (1 Bft) SO 135 14,6 C 26,2 C
27.07.2012 10:31 26,4 C 46 % 1016,4 hPa 0,0 l/m 4,3 km/h (1 Bft) S-SO 157 13,8 C 26,4 C
27.07.2012 10:36 26,6 C 44 % 1016,4 hPa 0,0 l/m 9,4 km/h (2 Bft) O-SO 112 13,3 C 26,6 C
27.07.2012 10:41 26,8 C 44 % 1016,4 hPa 0,0 l/m 14,4 km/h (3 Bft) O 90 13,5 C 26,8 C
27.07.2012 10:46 26,9 C 45 % 1016,4 hPa 0,0 l/m 5,0 km/h (1 Bft) O-SO 112 13,9 C 26,9 C
27.07.2012 10:51 27,0 C 44 % 1016,3 hPa 0,0 l/m 5,0 km/h (1 Bft) SO 135 13,7 C 27,0 C
27.07.2012 10:56 26,9 C 43 % 1016,3 hPa 0,0 l/m 4,7 km/h (1 Bft) O 90 13,2 C 26,9 C
27.07.2012 11:01 27,2 C 43 % 1016,1 hPa 0,0 l/m 11,9 km/h (2 Bft) O-SO 112 13,5 C 27,2 C
27.07.2012 11:06 27,2 C 43 % 1016,2 hPa 0,0 l/m 5,8 km/h (2 Bft) O 90 13,5 C 27,2 C
27.07.2012 11:11 27,3 C 43 % 1016,1 hPa 0,0 l/m 5,8 km/h (2 Bft) S-SO 157 13,6 C 27,3 C
27.07.2012 11:16 27,5 C 42 % 1015,7 hPa 0,0 l/m 11,2 km/h (2 Bft) O-SO 112 13,4 C 27,5 C
27.07.2012 11:21 27,5 C 44 % 1015,7 hPa 0,0 l/m 4,3 km/h (1 Bft) O-SO 112 14,1 C 27,5 C
27.07.2012 11:26 27,8 C 44 % 1015,7 hPa 0,0 l/m 6,8 km/h (2 Bft) O-NO 67 14,4 C 27,8 C
27.07.2012 11:31 28,1 C 43 % 1015,8 hPa 0,0 l/m 1,4 km/h (1 Bft) O 90 14,3 C 28,1 C
27.07.2012 11:36 28,0 C 42 % 1015,6 hPa 0,0 l/m 6,8 km/h (2 Bft) O 90 13,9 C 28,0 C
27.07.2012 11:41 28,2 C 43 % 1015,7 hPa 0,0 l/m 4,3 km/h (1 Bft) O 90 14,4 C 28,2 C
27.07.2012 11:46 28,4 C 44 % 1015,8 hPa 0,0 l/m 3,6 km/h (1 Bft) SO 135 14,9 C 28,4 C
27.07.2012 11:51 28,7 C 43 % 1015,6 hPa 0,0 l/m 7,9 km/h (2 Bft) NO 45 14,9 C 28,7 C
27.07.2012 11:56 28,8 C 43 % 1015,4 hPa 0,0 l/m 4,0 km/h (1 Bft) NO 45 15,0 C 28,8 C
27.07.2012 12:01 29,0 C 43 % 1015,5 hPa 0,0 l/m 2,5 km/h (1 Bft) O-SO 112 15,1 C 29,0 C
27.07.2012 12:06 29,3 C 42 % 1015,5 hPa 0,0 l/m 4,0 km/h (1 Bft) SO 135 15,0 C 29,3 C
27.07.2012 12:11 29,4 C 41 % 1015,3 hPa 0,0 l/m 13,7 km/h (3 Bft) SO 135 14,7 C 29,4 C
27.07.2012 12:16 29,3 C 42 % 1015,4 hPa 0,0 l/m 4,3 km/h (1 Bft) O-NO 67 15,0 C 29,3 C
27.07.2012 12:21 29,4 C 41 % 1015,2 hPa 0,0 l/m 5,8 km/h (2 Bft) O-SO 112 14,7 C 29,4 C
27.07.2012 12:26 29,4 C 41 % 1015,1 hPa 0,0 l/m 8,3 km/h (2 Bft) SO 135 14,7 C 29,4 C
27.07.2012 12:31 29,6 C 40 % 1015,1 hPa 0,0 l/m 13,7 km/h (3 Bft) SO 135 14,5 C 29,6 C
27.07.2012 12:36 29,6 C 40 % 1015,1 hPa 0,0 l/m 0,0 km/h (0 Bft) O-NO 67 14,5 C 29,6 C
27.07.2012 12:41 29,8 C 41 % 1014,9 hPa 0,0 l/m 15,5 km/h (3 Bft) SO 135 15,1 C 29,8 C
27.07.2012 12:46 30,1 C 38 % 1014,8 hPa 0,0 l/m 10,8 km/h (2 Bft) SO 135 14,2 C 30,1 C
27.07.2012 12:51 30,1 C 38 % 1014,7 hPa 0,0 l/m 11,2 km/h (2 Bft) SO 135 14,2 C 30,1 C
27.07.2012 12:56 30,4 C 38 % 1014,8 hPa 0,0 l/m 10,1 km/h (2 Bft) SO 135 14,5 C 30,4 C
27.07.2012 13:01 30,5 C 38 % 1014,8 hPa 0,0 l/m 13,0 km/h (3 Bft) SO 135 14,5 C 30,5 C
27.07.2012 13:06 30,7 C 37 % 1014,5 hPa 0,0 l/m 8,3 km/h (2 Bft) SO 135 14,3 C 30,7 C
27.07.2012 13:11 30,8 C 38 % 1014,6 hPa 0,0 l/m 8,6 km/h (2 Bft) O-SO 112 14,8 C 30,8 C
27.07.2012 13:16 30,9 C 37 % 1014,5 hPa 0,0 l/m 3,2 km/h (1 Bft) SO 135 14,5 C 30,9 C
27.07.2012 13:21 31,2 C 38 % 1014,5 hPa 0,0 l/m 5,8 km/h (2 Bft) SO 135 15,2 C 31,2 C
27.07.2012 13:26 31,4 C 38 % 1014,4 hPa 0,0 l/m 8,6 km/h (2 Bft) SO 135 15,3 C 31,4 C
27.07.2012 13:31 31,4 C 37 % 1014,4 hPa 0,0 l/m 7,6 km/h (2 Bft) SO 135 14,9 C 31,4 C
27.07.2012 13:36 31,4 C 37 % 1014,3 hPa 0,0 l/m 2,9 km/h (1 Bft) O-SO 112 14,9 C 31,4 C
27.07.2012 13:41 31,5 C 37 % 1014,2 hPa 0,0 l/m 9,0 km/h (2 Bft) SO 135 15,0 C 31,5 C
27.07.2012 13:46 31,6 C 37 % 1014,1 hPa 0,0 l/m 9,4 km/h (2 Bft) S-SO 157 15,1 C 31,6 C
27.07.2012 13:51 31,5 C 37 % 1014,2 hPa 0,0 l/m 12,6 km/h (3 Bft) O-SO 112 15,0 C 31,5 C
27.07.2012 13:56 31,3 C 37 % 1014,2 hPa 0,0 l/m 8,6 km/h (2 Bft) SO 135 14,8 C 31,3 C
27.07.2012 14:01 31,6 C 38 % 1014,1 hPa 0,0 l/m 6,1 km/h (2 Bft) S-SO 157 15,5 C 31,6 C
_ Min-Zeit 05:36 13:06 13:46 - 00:41 - - 05:16 05:36
Minimum _ 16,9 C 37 % 1014,1 hPa - 0,0 km/h (0 Bft) - - 12,2 C 16,9 C
_ Max-Zeit 13:46 06:06 00:41 00:31 12:41 - - 14:01 13:46
Maximum _ 31,6 C 78 % 1017,7 hPa 0,0 l/m 15,5 km/h
SO (3 Bft)
- - 15,5 C 31,6 C
Durchschnitt _ 22,7 C 59 % 1016,7 hPa #0,0 l/m 3,2 km/h (1 Bft) SO - 13,8 C 22,7 C
(c) by David Heller